createdAt,value
2019-05-20T00:03:45.787Z,100677.00
2019-05-20T00:08:51.172Z,100679.21
2019-05-20T00:13:56.322Z,100658.83
2019-05-20T00:19:01.536Z,100658.31
2019-05-20T00:24:07.077Z,100665.25
2019-05-20T00:29:12.659Z,100661.28
2019-05-20T00:34:26.654Z,100658.13
2019-05-20T00:39:25.101Z,100656.83
2019-05-20T00:44:30.687Z,100645.95
2019-05-20T00:49:36.392Z,100662.89
2019-05-20T00:54:41.709Z,100665.46
2019-05-20T00:59:47.116Z,100663.73
2019-05-20T01:04:52.515Z,100662.38
2019-05-20T01:09:57.869Z,100656.23
2019-05-20T01:15:03.066Z,100668.80
2019-05-20T01:20:09.428Z,100658.81
2019-05-20T01:25:14.701Z,100651.83
2019-05-20T01:30:21.869Z,100663.09
2019-05-20T01:35:27.034Z,100656.95
2019-05-20T01:40:32.292Z,100646.77
2019-05-20T01:45:37.741Z,100646.77
2019-05-20T01:50:43.403Z,100650.23
2019-05-20T01:55:49.079Z,100639.34
2019-05-20T02:00:54.502Z,100643.67
2019-05-20T02:05:59.788Z,100634.97
2019-05-20T02:11:05.463Z,100624.80
2019-05-20T02:16:11.037Z,100633.08
2019-05-20T02:21:16.487Z,100629.20
2019-05-20T02:26:21.935Z,100622.70
2019-05-20T02:31:27.512Z,100622.19
2019-05-20T02:36:32.966Z,100619.50
2019-05-20T02:41:38.207Z,100633.96
2019-05-20T02:46:43.324Z,100643.91
2019-05-20T02:51:48.843Z,100646.63
2019-05-20T02:56:54.099Z,100641.34
2019-05-20T03:01:59.242Z,100637.71
2019-05-20T03:07:05.711Z,100646.03
2019-05-20T03:12:10.849Z,100649.90
2019-05-20T03:17:16.352Z,100637.75
2019-05-20T03:22:22.018Z,100642.30
2019-05-20T03:27:27.376Z,100639.67
2019-05-20T03:32:32.822Z,100632.31
2019-05-20T03:37:38.304Z,100632.31
2019-05-20T03:42:43.605Z,100644.92
2019-05-20T03:47:49.040Z,100641.47
2019-05-20T03:52:54.503Z,100643.31
2019-05-20T03:57:59.935Z,100633.84
2019-05-20T04:03:05.507Z,100632.22
2019-05-20T04:08:11.080Z,100625.88
2019-05-20T04:13:16.532Z,100624.98
2019-05-20T04:18:21.885Z,100620.88
2019-05-20T04:23:27.250Z,100616.55
2019-05-20T04:28:32.436Z,100619.22
2019-05-20T04:33:40.627Z,100615.70
2019-05-20T04:38:45.952Z,100602.69
2019-05-20T04:43:51.243Z,100600.06
2019-05-20T04:48:56.937Z,100600.52
2019-05-20T04:54:02.078Z,100602.30
2019-05-20T04:59:07.441Z,100610.63
2019-05-20T05:04:12.763Z,100615.95
2019-05-20T05:09:18.286Z,100608.53
2019-05-20T05:14:23.572Z,100610.31
2019-05-20T05:19:28.786Z,100609.06
2019-05-20T05:24:34.418Z,100614.86
2019-05-20T05:29:39.868Z,100615.73
2019-05-20T05:34:45.119Z,100623.67
2019-05-20T05:39:50.727Z,100613.58
2019-05-20T05:44:55.798Z,100608.33
2019-05-20T05:50:01.077Z,100610.95
2019-05-20T05:55:07.156Z,100604.80
2019-05-20T06:00:12.373Z,100596.90
2019-05-20T06:05:17.856Z,100598.66
2019-05-20T06:10:23.535Z,100584.62
2019-05-20T06:15:28.877Z,100587.66
2019-05-20T06:20:34.473Z,100578.02
2019-05-20T06:25:39.849Z,100572.73
2019-05-20T06:30:46.792Z,100577.06
2019-05-20T06:35:52.066Z,100578.34
2019-05-20T06:40:57.460Z,100575.61
2019-05-20T06:46:03.020Z,100556.66
2019-05-20T06:51:08.374Z,100564.49
2019-05-20T06:56:13.840Z,100556.83
2019-05-20T07:01:19.041Z,100567.36
2019-05-20T07:06:24.338Z,100560.31
2019-05-20T07:11:29.624Z,100562.41
2019-05-20T07:16:34.998Z,100578.52
2019-05-20T07:21:40.366Z,100571.08
2019-05-20T07:26:45.831Z,100574.98
2019-05-20T07:31:51.208Z,100574.52
2019-05-20T07:37:03.323Z,100580.36
2019-05-20T07:42:04.045Z,100576.00
2019-05-20T07:47:11.198Z,100572.05
2019-05-20T07:52:17.340Z,100559.78
2019-05-20T07:57:25.020Z,100562.48
2019-05-20T08:02:31.204Z,100559.13
2019-05-20T08:07:51.191Z,100560.11
2019-05-20T08:12:43.959Z,100559.66
2019-05-20T08:17:49.534Z,100557.50
2019-05-20T08:22:55.009Z,100548.53
2019-05-20T08:28:00.387Z,100551.50
2019-05-20T08:33:06.609Z,100547.59
2019-05-20T08:38:11.972Z,100536.18
2019-05-20T08:43:17.311Z,100529.45
2019-05-20T08:48:22.831Z,100537.67
2019-05-20T08:53:29.152Z,100531.80
2019-05-20T08:58:34.319Z,100531.80
2019-05-20T09:03:39.559Z,100537.43
2019-05-20T09:08:44.960Z,100544.42
2019-05-20T09:13:50.569Z,100541.22
2019-05-20T09:18:55.820Z,100534.88
2019-05-20T09:24:01.229Z,100537.19
2019-05-20T09:29:10.766Z,100531.94
2019-05-20T09:34:13.791Z,100540.25
2019-05-20T09:39:19.137Z,100535.70
2019-05-20T09:44:24.478Z,100534.70
2019-05-20T09:49:29.709Z,100521.94
2019-05-20T09:54:34.986Z,100517.63
2019-05-20T09:59:43.434Z,100515.64
2019-05-20T10:04:47.489Z,100518.77
2019-05-20T10:09:53.042Z,100511.45
2019-05-20T10:14:58.512Z,100507.82
2019-05-20T10:20:05.502Z,100494.34
2019-05-20T10:25:11.738Z,100483.54
2019-05-20T10:30:17.411Z,100486.77
2019-05-20T10:35:22.833Z,100483.86
2019-05-20T10:40:28.089Z,100496.36
2019-05-20T10:45:34.344Z,100508.52
2019-05-20T10:50:41.426Z,100498.05
2019-05-20T10:55:46.715Z,100495.45
2019-05-20T11:01:02.369Z,100489.05
2019-05-20T11:05:59.165Z,100488.61
2019-05-20T11:11:04.647Z,100487.92
2019-05-20T11:16:10.303Z,100483.22
2019-05-20T11:21:15.942Z,100486.84
2019-05-20T11:26:21.506Z,100485.77
2019-05-20T11:31:26.947Z,100486.59
2019-05-20T11:36:32.442Z,100477.59
2019-05-20T11:41:53.003Z,100470.69
2019-05-20T11:46:45.400Z,100466.25
2019-05-20T11:51:50.549Z,100470.84
2019-05-20T11:56:55.728Z,100474.70
2019-05-20T12:02:03.839Z,100460.25
2019-05-20T12:07:08.701Z,100452.47
2019-05-20T12:12:14.347Z,100456.59
2019-05-20T12:17:19.531Z,100450.21
2019-05-20T12:22:24.702Z,100433.75
2019-05-20T12:27:30.080Z,100419.31
2019-05-20T12:32:35.603Z,100407.86
2019-05-20T12:37:40.799Z,100387.34
2019-05-20T12:42:46.125Z,100396.99
2019-05-20T12:47:51.547Z,100393.94
2019-05-20T12:52:56.785Z,100383.06
2019-05-20T12:58:02.076Z,100364.84
2019-05-20T13:03:07.418Z,100352.11
2019-05-20T13:08:12.996Z,100353.88
2019-05-20T13:13:18.381Z,100349.53
2019-05-20T13:18:23.677Z,100333.83
2019-05-20T13:23:29.061Z,100336.48
2019-05-20T13:28:34.425Z,100329.17
2019-05-20T13:33:39.813Z,100328.39
2019-05-20T13:38:45.302Z,100324.86
2019-05-20T13:43:52.043Z,100317.85
2019-05-20T13:48:57.284Z,100308.05
2019-05-20T13:54:02.515Z,100304.08
2019-05-20T13:59:07.701Z,100292.55
2019-05-20T14:04:12.923Z,100295.20
2019-05-20T14:09:20.066Z,100293.88
2019-05-20T14:14:25.416Z,100282.10
2019-05-20T14:19:31.879Z,100274.92
2019-05-20T14:24:37.364Z,100265.28
2019-05-20T14:29:43.955Z,100260.75
2019-05-20T14:34:49.185Z,100256.95
2019-05-20T14:39:54.544Z,100252.52
2019-05-20T14:45:00.021Z,100259.66
2019-05-20T14:50:07.660Z,100262.67
2019-05-20T14:55:13.227Z,100260.73
2019-05-20T15:00:18.826Z,100260.53
2019-05-20T15:05:24.299Z,100266.61
2019-05-20T15:10:29.990Z,100277.91
2019-05-20T15:15:35.849Z,100287.28
2019-05-20T15:20:41.144Z,100290.03
2019-05-20T15:25:46.603Z,100296.62
2019-05-20T15:30:52.087Z,100292.53
2019-05-20T15:35:58.226Z,100279.70
2019-05-20T15:41:03.713Z,100270.00
2019-05-20T15:46:08.941Z,100291.16
2019-05-20T15:51:14.249Z,100293.09
2019-05-20T15:56:19.666Z,100296.16
2019-05-20T16:01:25.023Z,100313.43
2019-05-20T16:06:30.461Z,100317.86
2019-05-20T16:11:35.685Z,100298.83
2019-05-20T16:16:40.980Z,100292.31
2019-05-20T16:21:47.930Z,100311.78
2019-05-20T16:26:53.454Z,100307.52
2019-05-20T16:31:58.794Z,100292.14
2019-05-20T16:37:04.320Z,100269.38
2019-05-20T16:42:12.025Z,100255.71
2019-05-20T16:47:17.392Z,100267.36
2019-05-20T16:52:22.545Z,100270.09
2019-05-20T16:57:28.094Z,100305.88
2019-05-20T17:02:33.520Z,100326.84
2019-05-20T17:07:39.829Z,100318.73
2019-05-20T17:12:45.271Z,100293.42
2019-05-20T17:17:50.594Z,100304.30
2019-05-20T17:22:56.181Z,100307.55
2019-05-20T17:28:01.465Z,100329.02
2019-05-20T17:33:06.854Z,100340.20
2019-05-20T17:38:13.109Z,100360.88
2019-05-20T17:43:20.215Z,100356.95
2019-05-20T17:48:25.590Z,100358.76
2019-05-20T17:53:30.953Z,100357.52
2019-05-20T17:58:37.408Z,100378.73
2019-05-20T18:03:43.049Z,100364.36
2019-05-20T18:08:50.153Z,100369.30
2019-05-20T18:13:55.250Z,100376.45
2019-05-20T18:19:00.689Z,100403.98
2019-05-20T18:24:06.254Z,100409.27
2019-05-20T18:29:11.726Z,100424.33
2019-05-20T18:34:16.887Z,100427.09
2019-05-20T18:39:22.066Z,100422.50
2019-05-20T18:44:27.621Z,100428.20
2019-05-20T18:49:33.183Z,100433.63
2019-05-20T18:54:38.623Z,100424.34
2019-05-20T18:59:44.637Z,100418.61
2019-05-20T19:04:49.966Z,100405.42
2019-05-20T19:09:55.262Z,100423.24
2019-05-20T19:15:00.482Z,100442.72
2019-05-20T19:20:07.229Z,100434.44
2019-05-20T19:25:12.434Z,100422.48
2019-05-20T19:30:17.953Z,100414.78
2019-05-20T19:35:23.274Z,100411.84
2019-05-20T19:40:28.548Z,100395.41
2019-05-20T19:45:33.912Z,100394.61
2019-05-20T19:50:39.348Z,100376.55
2019-05-20T19:55:44.614Z,100387.52
2019-05-20T20:00:51.744Z,100362.63
2019-05-20T20:05:57.345Z,100353.19
2019-05-20T20:11:02.761Z,100351.52
2019-05-20T20:16:07.993Z,100372.18
2019-05-20T20:21:13.165Z,100385.77
2019-05-20T20:26:18.700Z,100381.70
2019-05-20T20:31:23.958Z,100370.77
2019-05-20T20:36:29.036Z,100363.30
2019-05-20T20:41:34.402Z,100348.84
2019-05-20T20:46:40.715Z,100366.44
2019-05-20T20:51:47.750Z,100363.85
2019-05-20T20:56:53.215Z,100353.83
2019-05-20T21:01:59.350Z,100345.31
2019-05-20T21:07:05.054Z,100345.31
2019-05-20T21:12:10.430Z,100359.00
2019-05-20T21:17:15.604Z,100350.69
2019-05-20T21:22:21.184Z,100343.71
2019-05-20T21:27:26.434Z,100335.86
2019-05-20T21:32:31.940Z,100335.42
2019-05-20T21:37:37.154Z,100334.62
2019-05-20T21:42:42.307Z,100341.17
2019-05-20T21:47:47.566Z,100337.20
2019-05-20T21:52:52.900Z,100349.47
2019-05-20T21:57:58.027Z,100342.39
2019-05-20T22:03:03.335Z,100349.54
2019-05-20T22:08:08.956Z,100346.09
2019-05-20T22:13:14.325Z,100348.33
2019-05-20T22:18:19.759Z,100352.77
2019-05-20T22:23:38.718Z,100345.31
2019-05-20T22:28:44.112Z,100341.00
2019-05-20T22:33:49.351Z,100329.92
2019-05-20T22:38:54.697Z,100345.33
2019-05-20T22:43:59.970Z,100359.75
2019-05-20T22:49:05.430Z,100370.30
2019-05-20T22:54:10.746Z,100365.93
2019-05-20T22:59:15.919Z,100374.59
2019-05-20T23:04:21.507Z,100371.55
2019-05-20T23:09:26.827Z,100371.19
2019-05-20T23:14:32.228Z,100381.73
2019-05-20T23:19:37.590Z,100375.02
2019-05-20T23:24:43.037Z,100372.52
2019-05-20T23:29:48.432Z,100376.47
2019-05-20T23:34:53.575Z,100369.45
2019-05-20T23:39:58.725Z,100366.96
2019-05-20T23:45:06.725Z,100351.73
2019-05-20T23:50:12.613Z,100338.46
2019-05-20T23:55:17.896Z,100348.64
